createdAt,value
2023-04-10T00:00:56.975Z,68.23
2023-04-10T00:03:25.152Z,68.31
2023-04-10T00:05:54.758Z,68.38
2023-04-10T00:08:24.181Z,68.44
2023-04-10T00:10:51.922Z,68.07
2023-04-10T00:13:19.640Z,66.90
2023-04-10T00:15:47.396Z,67.14
2023-04-10T00:18:15.438Z,67.83
2023-04-10T00:20:43.809Z,67.14
2023-04-10T00:23:11.502Z,66.14
2023-04-10T00:25:40.617Z,66.10
2023-04-10T00:28:08.386Z,66.05
2023-04-10T00:30:36.125Z,66.23
2023-04-10T00:33:03.991Z,66.87
2023-04-10T00:35:31.845Z,66.31
2023-04-10T00:37:59.624Z,67.06
2023-04-10T00:40:27.476Z,67.83
2023-04-10T00:42:56.510Z,66.77
2023-04-10T00:45:24.398Z,67.15
2023-04-10T00:47:52.763Z,67.84
2023-04-10T00:50:21.132Z,67.34
2023-04-10T00:52:49.336Z,67.61
2023-04-10T00:55:17.166Z,67.13
2023-04-10T00:57:47.113Z,66.86
2023-04-10T01:00:17.482Z,66.73
2023-04-10T01:02:45.549Z,67.08
2023-04-10T01:05:13.887Z,67.67
2023-04-10T01:07:53.789Z,68.10
2023-04-10T01:10:28.540Z,68.74
2023-04-10T01:13:05.574Z,68.25
2023-04-10T01:15:40.199Z,68.65
2023-04-10T01:18:12.540Z,68.38
2023-04-10T01:20:41.301Z,68.51
2023-04-10T01:23:32.543Z,68.09
2023-04-10T01:26:01.197Z,68.81
2023-04-10T01:28:44.569Z,68.84
2023-04-10T01:31:15.595Z,68.28
2023-04-10T01:33:47.712Z,68.56
2023-04-10T01:36:21.889Z,68.59
2023-04-10T01:38:50.907Z,68.96
2023-04-10T01:41:19.971Z,69.05
2023-04-10T01:43:50.648Z,68.87
2023-04-10T01:46:20.573Z,69.01
2023-04-10T01:48:48.621Z,68.71
2023-04-10T01:51:17.091Z,68.58
2023-04-10T01:53:46.057Z,69.31
2023-04-10T01:56:14.195Z,69.36
2023-04-10T01:58:42.107Z,69.56
2023-04-10T02:01:22.515Z,68.85
2023-04-10T02:03:56.904Z,69.05
2023-04-10T02:06:31.988Z,69.22
2023-04-10T02:09:03.885Z,69.39
2023-04-10T02:11:37.129Z,69.40
2023-04-10T02:14:07.051Z,68.77
2023-04-10T02:16:37.921Z,68.62
2023-04-10T02:19:06.964Z,68.46
2023-04-10T02:21:35.221Z,69.10
2023-04-10T02:24:02.906Z,69.17
2023-04-10T02:26:30.765Z,68.89
2023-04-10T02:28:58.432Z,68.61
2023-04-10T02:31:26.144Z,68.76
2023-04-10T02:33:55.512Z,69.71
2023-04-10T02:36:23.336Z,69.37
2023-04-10T02:38:51.117Z,69.81
2023-04-10T02:41:18.831Z,69.68
2023-04-10T02:43:46.577Z,69.78
2023-04-10T02:46:14.238Z,69.56
2023-04-10T02:48:41.985Z,69.57
2023-04-10T02:51:11.043Z,69.43
2023-04-10T02:53:38.766Z,69.04
2023-04-10T02:56:08.137Z,69.43
2023-04-10T02:58:36.123Z,69.40
2023-04-10T03:01:04.046Z,69.67
2023-04-10T03:03:31.811Z,68.51
2023-04-10T03:05:59.586Z,68.68
2023-04-10T03:08:30.184Z,68.42
2023-04-10T03:10:57.897Z,68.48
2023-04-10T03:13:26.037Z,67.84
2023-04-10T03:15:53.849Z,67.09
2023-04-10T03:18:21.547Z,66.28
2023-04-10T03:20:49.960Z,66.76
2023-04-10T03:23:17.696Z,67.32
2023-04-10T03:25:50.931Z,66.58
2023-04-10T03:28:18.695Z,65.93
2023-04-10T03:30:46.450Z,65.46
2023-04-10T03:33:14.198Z,66.58
2023-04-10T03:35:42.056Z,66.34
2023-04-10T03:38:09.861Z,65.93
2023-04-10T03:40:37.770Z,66.17
2023-04-10T03:43:06.877Z,66.44
2023-04-10T03:45:34.660Z,67.83
2023-04-10T03:48:02.389Z,68.33
2023-04-10T03:50:30.498Z,69.08
2023-04-10T03:52:58.230Z,69.23
2023-04-10T03:55:25.921Z,69.04
2023-04-10T03:57:53.677Z,69.04
2023-04-10T04:00:22.851Z,69.20
2023-04-10T04:02:51.912Z,69.30
2023-04-10T04:05:20.043Z,68.52
2023-04-10T04:07:48.122Z,67.86
2023-04-10T04:10:15.986Z,66.32
2023-04-10T04:12:43.778Z,68.48
2023-04-10T04:15:12.090Z,68.25
2023-04-10T04:17:41.215Z,68.46
2023-04-10T04:20:09.988Z,68.04
2023-04-10T04:22:37.674Z,68.58
2023-04-10T04:25:08.912Z,68.13
2023-04-10T04:27:36.680Z,68.75
2023-04-10T04:30:04.707Z,68.59
2023-04-10T04:32:32.501Z,69.37
2023-04-10T04:35:01.623Z,69.77
2023-04-10T04:37:29.434Z,69.92
2023-04-10T04:39:57.080Z,69.75
2023-04-10T04:42:25.021Z,70.92
2023-04-10T04:44:52.918Z,69.84
2023-04-10T04:47:20.647Z,68.98
2023-04-10T04:49:48.424Z,69.02
2023-04-10T04:52:17.482Z,69.07
2023-04-10T04:54:45.460Z,69.05
2023-04-10T04:57:13.135Z,69.08
2023-04-10T04:59:40.821Z,67.79
2023-04-10T05:02:08.569Z,67.83
2023-04-10T05:04:36.326Z,68.44
2023-04-10T05:07:04.003Z,68.53
2023-04-10T05:09:33.029Z,70.22
2023-04-10T05:12:00.739Z,70.06
2023-04-10T05:14:28.426Z,69.96
2023-04-10T05:16:56.219Z,69.36
2023-04-10T05:19:23.926Z,67.92
2023-04-10T05:21:51.624Z,66.74
2023-04-10T05:24:19.290Z,67.43
2023-04-10T05:26:48.550Z,65.30
2023-04-10T05:29:16.248Z,63.08
2023-04-10T05:31:43.974Z,64.08
2023-04-10T05:34:11.839Z,64.39
2023-04-10T05:36:39.518Z,65.26
2023-04-10T05:39:07.177Z,65.63
2023-04-10T05:41:34.974Z,64.28
2023-04-10T05:44:04.056Z,64.00
2023-04-10T05:46:31.877Z,62.68
2023-04-10T05:48:59.680Z,62.17
2023-04-10T05:51:27.373Z,61.16
2023-04-10T05:53:55.199Z,63.16
2023-04-10T05:56:22.899Z,63.49
2023-04-10T05:58:50.654Z,62.27
2023-04-10T06:01:19.759Z,61.22
2023-04-10T06:03:47.792Z,61.30
2023-04-10T06:06:15.843Z,62.04
2023-04-10T06:08:43.518Z,61.84
2023-04-10T06:11:11.439Z,60.14
2023-04-10T06:13:39.194Z,58.76
2023-04-10T06:16:07.688Z,58.40
2023-04-10T06:18:36.898Z,55.77
2023-04-10T06:21:04.890Z,54.96
2023-04-10T06:23:32.629Z,53.97
2023-04-10T06:26:01.375Z,53.04
2023-04-10T06:28:29.050Z,52.17
2023-04-10T06:30:57.549Z,50.96
2023-04-10T06:33:26.394Z,50.01
2023-04-10T06:35:56.057Z,50.61
2023-04-10T06:38:23.803Z,50.92
2023-04-10T06:40:51.540Z,50.34
2023-04-10T06:43:19.252Z,49.95
2023-04-10T06:45:47.063Z,49.09
2023-04-10T06:48:15.141Z,48.96
2023-04-10T06:50:42.929Z,48.59
2023-04-10T06:53:12.103Z,47.96
2023-04-10T06:55:40.024Z,48.24
2023-04-10T06:58:07.730Z,48.25
2023-04-10T07:00:35.500Z,48.60
2023-04-10T07:03:03.231Z,48.49
2023-04-10T07:05:31.112Z,48.84
2023-04-10T07:07:58.811Z,49.27
2023-04-10T07:10:27.930Z,49.33
2023-04-10T07:12:57.220Z,49.59
2023-04-10T07:15:24.889Z,49.10
2023-04-10T07:17:52.828Z,50.09
2023-04-10T07:20:20.698Z,50.65
2023-04-10T07:22:48.463Z,50.17
2023-04-10T07:25:16.622Z,48.37
2023-04-10T07:27:45.690Z,47.66
2023-04-10T07:30:13.971Z,47.66
2023-04-10T07:32:42.379Z,47.29
2023-04-10T07:35:11.036Z,47.77
2023-04-10T07:37:39.757Z,47.07
2023-04-10T07:40:09.063Z,47.22
2023-04-10T07:42:36.922Z,47.53
2023-04-10T07:45:09.710Z,47.41
2023-04-10T07:47:37.444Z,47.34
2023-04-10T07:50:06.443Z,46.74
2023-04-10T07:52:34.133Z,46.00
2023-04-10T07:55:02.761Z,45.87
2023-04-10T07:57:32.170Z,45.32
2023-04-10T08:00:00.034Z,45.58
2023-04-10T08:02:29.305Z,44.78
2023-04-10T08:04:57.957Z,44.92
2023-04-10T08:07:26.000Z,44.53
2023-04-10T08:09:53.869Z,44.68
2023-04-10T08:12:21.625Z,44.40
2023-04-10T08:14:51.712Z,44.12
2023-04-10T08:17:19.672Z,44.11
2023-04-10T08:19:48.756Z,43.33
2023-04-10T08:22:16.568Z,43.45
2023-04-10T08:24:44.498Z,42.53
2023-04-10T08:27:12.363Z,43.66
2023-04-10T08:29:40.058Z,43.20
2023-04-10T08:32:07.764Z,42.95
2023-04-10T08:34:35.540Z,42.30
2023-04-10T08:37:10.589Z,42.33
2023-04-10T08:39:39.805Z,41.83
2023-04-10T08:42:07.780Z,41.14
2023-04-10T08:44:37.164Z,40.14
2023-04-10T08:47:05.150Z,40.08
2023-04-10T08:49:36.394Z,39.87
2023-04-10T08:52:08.103Z,39.74
2023-04-10T08:54:39.464Z,39.19
2023-04-10T08:57:09.811Z,39.00
2023-04-10T08:59:38.658Z,38.99
2023-04-10T09:02:07.407Z,38.28
2023-04-10T09:04:35.557Z,37.50
2023-04-10T09:07:03.356Z,37.28
2023-04-10T09:09:33.250Z,37.15
2023-04-10T09:12:02.634Z,37.64
2023-04-10T09:14:31.837Z,37.32
2023-04-10T09:17:13.081Z,37.53
2023-04-10T09:19:41.020Z,37.26
2023-04-10T09:22:09.008Z,36.99
2023-04-10T09:24:39.107Z,37.23
2023-04-10T09:27:07.231Z,37.26
2023-04-10T09:29:45.887Z,37.22
2023-04-10T09:32:13.757Z,36.93
2023-04-10T09:34:54.896Z,36.86
2023-04-10T09:37:22.849Z,36.18
2023-04-10T09:39:51.879Z,37.03
2023-04-10T09:42:31.411Z,36.82
2023-04-10T09:44:59.568Z,36.88
2023-04-10T09:47:27.418Z,36.18
2023-04-10T09:49:56.477Z,36.43
2023-04-10T09:52:26.388Z,36.44
2023-04-10T09:54:56.382Z,35.48
2023-04-10T09:57:25.936Z,35.86
2023-04-10T09:59:55.048Z,35.67
2023-04-10T10:02:24.097Z,35.66
2023-04-10T10:04:53.275Z,35.59
2023-04-10T10:07:22.375Z,36.07
2023-04-10T10:09:51.687Z,35.40
2023-04-10T10:12:24.938Z,35.42
2023-04-10T10:14:58.831Z,35.84
2023-04-10T10:17:31.581Z,35.96
2023-04-10T10:20:02.796Z,35.90
2023-04-10T10:22:30.643Z,36.71
2023-04-10T10:24:59.955Z,36.00
2023-04-10T10:27:30.036Z,36.32
2023-04-10T10:30:02.869Z,37.05
2023-04-10T10:32:33.324Z,35.88
2023-04-10T10:35:02.287Z,35.19
2023-04-10T10:37:30.644Z,35.07
2023-04-10T10:40:00.701Z,35.43
2023-04-10T10:42:35.724Z,34.87
2023-04-10T10:45:10.440Z,34.52
2023-04-10T10:47:42.081Z,35.11
2023-04-10T10:50:10.434Z,34.40
2023-04-10T10:52:49.716Z,34.08
2023-04-10T10:55:34.890Z,34.37
2023-04-10T10:58:06.202Z,34.00
2023-04-10T11:01:10.095Z,33.50
2023-04-10T11:03:38.590Z,32.61
2023-04-10T11:06:08.461Z,32.83
2023-04-10T11:08:45.837Z,33.33
2023-04-10T11:11:16.670Z,33.57
2023-04-10T11:14:17.973Z,32.12
2023-04-10T11:16:49.547Z,32.99
2023-04-10T11:19:23.680Z,32.38
2023-04-10T11:22:08.966Z,32.71
2023-04-10T11:25:00.047Z,33.10
2023-04-10T11:27:49.599Z,32.43
2023-04-10T11:30:29.380Z,32.02
2023-04-10T11:32:57.434Z,32.40
2023-04-10T11:35:25.286Z,32.11
2023-04-10T11:37:52.993Z,31.85
2023-04-10T11:40:21.181Z,31.91
2023-04-10T11:42:48.890Z,32.37
2023-04-10T11:45:30.871Z,33.34
2023-04-10T11:47:58.639Z,33.76
2023-04-10T11:50:32.237Z,32.93
2023-04-10T11:52:59.926Z,33.29
2023-04-10T11:55:38.337Z,32.79
2023-04-10T11:58:06.697Z,32.83
2023-04-10T12:00:35.761Z,32.97
2023-04-10T12:03:03.662Z,32.34
2023-04-10T12:05:46.671Z,30.71
2023-04-10T12:08:14.410Z,31.60
2023-04-10T12:10:50.987Z,31.78
2023-04-10T12:13:25.968Z,33.31
2023-04-10T12:15:55.316Z,32.79
2023-04-10T12:18:23.621Z,33.32
2023-04-10T12:20:56.201Z,33.20
2023-04-10T12:23:24.584Z,33.05
2023-04-10T12:25:53.200Z,32.72
2023-04-10T12:28:22.229Z,32.74
2023-04-10T12:30:52.791Z,33.19
2023-04-10T12:33:25.914Z,33.54
2023-04-10T12:35:54.298Z,33.68
2023-04-10T12:38:42.007Z,33.83
2023-04-10T12:41:11.203Z,34.65
2023-04-10T12:43:39.964Z,34.35
2023-04-10T12:46:09.439Z,34.10
2023-04-10T12:48:38.548Z,34.75
2023-04-10T12:51:06.523Z,33.74
2023-04-10T12:53:44.625Z,34.24
2023-04-10T12:56:12.432Z,33.39
2023-04-10T12:58:42.401Z,33.43
2023-04-10T13:01:10.680Z,33.67
2023-04-10T13:03:39.958Z,33.55
2023-04-10T13:06:08.592Z,33.30
2023-04-10T13:08:36.491Z,33.58
2023-04-10T13:11:04.198Z,33.40
2023-04-10T13:13:32.806Z,32.97
2023-04-10T13:16:00.768Z,33.24
2023-04-10T13:18:28.564Z,33.08
2023-04-10T13:20:57.635Z,33.60
2023-04-10T13:23:25.284Z,33.42
2023-04-10T13:25:53.549Z,32.97
2023-04-10T13:28:21.560Z,33.50
2023-04-10T13:30:49.255Z,32.85
2023-04-10T13:33:16.979Z,32.79
2023-04-10T13:35:44.708Z,31.73
2023-04-10T13:38:13.760Z,32.06
2023-04-10T13:40:41.421Z,32.57
2023-04-10T13:43:09.101Z,32.25
2023-04-10T13:45:36.803Z,32.24
2023-04-10T13:48:07.212Z,32.68
2023-04-10T13:50:35.206Z,32.43
2023-04-10T13:53:02.985Z,32.31
2023-04-10T13:55:32.098Z,33.20
2023-04-10T13:57:59.826Z,33.39
2023-04-10T14:00:27.742Z,32.82
2023-04-10T14:02:55.615Z,33.31
2023-04-10T14:05:23.509Z,33.32
2023-04-10T14:07:56.788Z,34.01
2023-04-10T14:10:24.494Z,34.06
2023-04-10T14:12:53.569Z,34.31
2023-04-10T14:15:21.287Z,34.16
2023-04-10T14:17:48.986Z,33.76
2023-04-10T14:20:16.711Z,34.14
2023-04-10T14:22:44.350Z,34.28
2023-04-10T14:25:15.713Z,34.30
2023-04-10T14:27:44.044Z,34.68
2023-04-10T14:30:13.796Z,34.52
2023-04-10T14:32:41.659Z,34.34
2023-04-10T14:35:10.633Z,34.03
2023-04-10T14:37:38.523Z,34.33
2023-04-10T14:40:07.498Z,34.35
2023-04-10T14:42:35.191Z,34.83
2023-04-10T14:45:03.104Z,34.76
2023-04-10T14:47:32.216Z,34.42
2023-04-10T14:49:59.961Z,34.96
2023-04-10T14:52:27.675Z,34.80
2023-04-10T14:54:55.421Z,35.35
2023-04-10T14:57:23.054Z,35.53
2023-04-10T14:59:50.762Z,35.47
2023-04-10T15:02:18.505Z,35.77
2023-04-10T15:04:47.682Z,35.78
2023-04-10T15:07:15.403Z,35.78
2023-04-10T15:09:44.463Z,35.85
2023-04-10T15:12:12.087Z,36.03
2023-04-10T15:14:39.829Z,35.74
2023-04-10T15:17:07.608Z,35.97
2023-04-10T15:19:35.480Z,36.08
2023-04-10T15:22:04.704Z,35.56
2023-04-10T15:24:39.896Z,35.64
2023-04-10T15:27:15.095Z,35.87
2023-04-10T15:29:43.967Z,35.57
2023-04-10T15:32:11.642Z,35.17
2023-04-10T15:34:39.330Z,35.38
2023-04-10T15:37:08.343Z,35.19
2023-04-10T15:39:37.110Z,35.17
2023-04-10T15:42:05.252Z,35.25
2023-04-10T15:44:33.003Z,34.93
2023-04-10T15:47:00.846Z,35.48
2023-04-10T15:49:37.057Z,34.83
2023-04-10T15:52:06.213Z,34.96
2023-04-10T15:54:35.868Z,34.81
2023-04-10T15:57:03.821Z,34.68
2023-04-10T15:59:31.837Z,34.25
2023-04-10T16:01:59.713Z,34.53
2023-04-10T16:04:27.591Z,34.45
2023-04-10T16:06:56.449Z,34.37
2023-04-10T16:09:26.401Z,34.46
2023-04-10T16:11:56.317Z,34.33
2023-04-10T16:14:24.081Z,34.29
2023-04-10T16:16:52.023Z,34.55
2023-04-10T16:19:19.819Z,34.48
2023-04-10T16:21:47.491Z,35.38
2023-04-10T16:24:15.469Z,36.30
2023-04-10T16:26:43.180Z,36.57
2023-04-10T16:29:12.202Z,37.21
2023-04-10T16:31:39.947Z,37.49
2023-04-10T16:34:07.655Z,38.09
2023-04-10T16:36:35.395Z,38.70
2023-04-10T16:39:03.118Z,39.05
2023-04-10T16:41:30.902Z,39.87
2023-04-10T16:43:58.566Z,40.50
2023-04-10T16:46:27.805Z,40.76
2023-04-10T16:48:55.659Z,41.93
2023-04-10T16:51:24.348Z,42.57
2023-04-10T16:53:52.110Z,42.70
2023-04-10T16:56:19.908Z,45.16
2023-04-10T16:58:47.588Z,46.99
2023-04-10T17:01:17.776Z,48.31
2023-04-10T17:03:47.537Z,51.76
2023-04-10T17:06:16.002Z,54.32
2023-04-10T17:08:43.951Z,57.23
2023-04-10T17:11:12.529Z,61.13
2023-04-10T17:13:40.542Z,63.57
2023-04-10T17:16:09.411Z,64.12
2023-04-10T17:18:37.569Z,66.38
2023-04-10T17:21:07.444Z,68.27
2023-04-10T17:23:35.218Z,70.26
2023-04-10T17:26:05.605Z,71.42
2023-04-10T17:28:33.809Z,71.43
2023-04-10T17:31:01.794Z,72.83
2023-04-10T17:33:29.630Z,74.84
2023-04-10T17:35:57.491Z,76.56
2023-04-10T17:38:26.693Z,76.15
2023-04-10T17:40:54.339Z,75.79
2023-04-10T17:43:22.606Z,76.39
2023-04-10T17:45:50.355Z,76.11
2023-04-10T17:48:18.424Z,76.09
2023-04-10T17:50:46.278Z,76.35
2023-04-10T17:53:14.026Z,76.76
2023-04-10T17:55:43.066Z,77.27
2023-04-10T17:58:10.793Z,77.75
2023-04-10T18:00:38.670Z,77.26
2023-04-10T18:03:06.447Z,77.77
2023-04-10T18:05:36.728Z,77.69
2023-04-10T18:08:04.466Z,78.32
2023-04-10T18:10:32.147Z,79.15
2023-04-10T18:13:01.278Z,77.88
2023-04-10T18:15:29.521Z,78.36
2023-04-10T18:17:57.313Z,77.05
2023-04-10T18:20:25.078Z,78.34
2023-04-10T18:22:52.837Z,77.43
2023-04-10T18:25:20.490Z,77.19
2023-04-10T18:28:09.772Z,77.55
2023-04-10T18:30:38.976Z,78.60
2023-04-10T18:33:10.709Z,80.49
2023-04-10T18:35:39.034Z,83.74
2023-04-10T18:38:06.797Z,84.69
2023-04-10T18:40:36.614Z,88.61
2023-04-10T18:43:04.307Z,93.81
2023-04-10T18:45:33.903Z,92.53
2023-04-10T18:48:03.030Z,98.93
2023-04-10T18:50:31.778Z,98.46
2023-04-10T18:52:59.432Z,100.00
2023-04-10T18:55:27.160Z,99.27
2023-04-10T18:57:55.117Z,100.00
2023-04-10T19:00:23.111Z,100.00
2023-04-10T19:02:51.023Z,100.00
2023-04-10T19:05:20.130Z,100.00
2023-04-10T19:08:00.622Z,100.00
2023-04-10T19:10:29.042Z,100.00
2023-04-10T19:12:57.368Z,100.00
2023-04-10T19:15:25.873Z,100.00
2023-04-10T19:17:54.129Z,100.00
2023-04-10T19:20:49.796Z,100.00
2023-04-10T19:23:11.768Z,100.00
2023-04-10T19:25:39.562Z,100.00
2023-04-10T19:28:07.489Z,100.00
2023-04-10T19:30:35.341Z,100.00
2023-04-10T19:33:03.071Z,100.00
2023-04-10T19:35:32.319Z,100.00
2023-04-10T19:38:00.138Z,100.00
2023-04-10T19:40:28.036Z,100.00
2023-04-10T19:42:57.455Z,100.00
2023-04-10T19:45:29.113Z,100.00
2023-04-10T19:47:57.431Z,100.00
2023-04-10T19:50:25.363Z,100.00
2023-04-10T19:52:54.385Z,100.00
2023-04-10T19:55:22.312Z,100.00
2023-04-10T19:57:50.654Z,100.00
2023-04-10T20:00:18.790Z,100.00
2023-04-10T20:02:46.645Z,100.00
2023-04-10T20:05:14.783Z,100.00
2023-04-10T20:07:42.574Z,100.00
2023-04-10T20:10:12.325Z,99.18
2023-04-10T20:12:40.030Z,97.25
2023-04-10T20:15:09.287Z,98.36
2023-04-10T20:17:38.490Z,97.62
2023-04-10T20:20:07.301Z,96.03
2023-04-10T20:22:34.974Z,100.00
2023-04-10T20:25:02.644Z,100.00
2023-04-10T20:27:31.660Z,100.00
2023-04-10T20:29:59.348Z,100.00
2023-04-10T20:32:27.029Z,100.00
2023-04-10T20:34:54.731Z,100.00
2023-04-10T20:37:22.873Z,100.00
2023-04-10T20:39:52.238Z,100.00
2023-04-10T20:42:19.978Z,100.00
2023-04-10T20:44:49.287Z,100.00
2023-04-10T20:47:16.987Z,100.00
2023-04-10T20:49:44.635Z,100.00
2023-04-10T20:52:12.375Z,100.00
2023-04-10T20:54:40.080Z,100.00
2023-04-10T20:57:07.948Z,100.00
2023-04-10T20:59:36.660Z,100.00
2023-04-10T21:02:05.934Z,100.00
2023-04-10T21:04:33.739Z,100.00
2023-04-10T21:07:01.518Z,100.00
2023-04-10T21:09:29.275Z,100.00
2023-04-10T21:11:57.684Z,100.00
2023-04-10T21:14:25.346Z,100.00
2023-04-10T21:16:53.050Z,100.00
2023-04-10T21:19:22.134Z,100.00
2023-04-10T21:21:49.871Z,100.00
2023-04-10T21:24:17.609Z,100.00
2023-04-10T21:26:45.785Z,100.00
2023-04-10T21:29:13.533Z,100.00
2023-04-10T21:31:41.335Z,100.00
2023-04-10T21:34:09.131Z,100.00
2023-04-10T21:36:39.029Z,100.00
2023-04-10T21:39:09.211Z,100.00
2023-04-10T21:41:37.315Z,100.00
2023-04-10T21:44:05.040Z,100.00
2023-04-10T21:46:33.158Z,100.00
2023-04-10T21:49:01.190Z,100.00
2023-04-10T21:51:29.121Z,100.00
2023-04-10T21:53:58.169Z,100.00
2023-04-10T21:56:25.934Z,100.00
2023-04-10T21:58:53.891Z,100.00
2023-04-10T22:01:21.863Z,100.00
2023-04-10T22:03:50.604Z,100.00
2023-04-10T22:06:18.608Z,100.00
2023-04-10T22:08:46.945Z,100.00
2023-04-10T22:11:16.007Z,100.00
2023-04-10T22:13:43.747Z,100.00
2023-04-10T22:16:11.475Z,100.00
2023-04-10T22:18:39.278Z,100.00
2023-04-10T22:21:07.447Z,100.00
2023-04-10T22:23:35.148Z,100.00
2023-04-10T22:26:02.830Z,100.00
2023-04-10T22:28:31.892Z,100.00
2023-04-10T22:30:59.699Z,100.00
2023-04-10T22:33:27.577Z,100.00
2023-04-10T22:35:55.379Z,100.00
2023-04-10T22:38:23.129Z,100.00
2023-04-10T22:40:50.862Z,100.00
2023-04-10T22:43:18.634Z,100.00
2023-04-10T22:45:47.909Z,100.00
2023-04-10T22:48:15.711Z,100.00
2023-04-10T22:50:43.503Z,100.00
2023-04-10T22:53:11.685Z,100.00
2023-04-10T22:55:39.407Z,100.00
2023-04-10T22:58:07.346Z,100.00
2023-04-10T23:00:35.346Z,100.00
2023-04-10T23:03:04.733Z,100.00
2023-04-10T23:05:33.023Z,100.00
2023-04-10T23:08:00.831Z,100.00
2023-04-10T23:10:28.572Z,100.00
2023-04-10T23:12:56.346Z,100.00
2023-04-10T23:15:24.085Z,100.00
2023-04-10T23:17:51.828Z,100.00
2023-04-10T23:20:21.001Z,100.00
2023-04-10T23:22:48.675Z,100.00
2023-04-10T23:25:16.502Z,100.00
2023-04-10T23:27:44.313Z,100.00
2023-04-10T23:30:12.573Z,100.00
2023-04-10T23:32:40.374Z,100.00
2023-04-10T23:35:08.530Z,100.00
2023-04-10T23:37:37.743Z,100.00
2023-04-10T23:40:06.168Z,100.00
2023-04-10T23:42:33.815Z,100.00
2023-04-10T23:45:01.585Z,100.00
2023-04-10T23:47:29.345Z,100.00
2023-04-10T23:49:57.111Z,100.00
2023-04-10T23:52:24.794Z,100.00
2023-04-10T23:54:56.517Z,100.00
2023-04-10T23:57:24.397Z,100.00
2023-04-10T23:59:52.265Z,100.00
